Talla Bena, Louisiana
Current Conditions -  °F | °C
As of 5:53 PM on Wednesday 28 Jan 2015 (Local Time) from KTVR Reporting Station
Clear Clear  
Wind Chill: 60°   Ceiling: Unl
Heat Index: 60°   Visibility: 10mi
Dew Point: 43°   Wind: 8mph
Humidity: 53%   Direction: 160°SSE
Pressure: 30.15"   Gusts: NA
Location:  32.5752°N, 91.2825°W
Report Text: KTVR 282353Z AUTO 16007KT 10SM CLR 16/06 A3015 RMK AO2 SLP215 T01560061 10217 20156 58008
Loading
Personal Weather Stations






























Interactive Weather Map New forecast layout! Learn more

10-Day Weather Forecast

Advertisements
Track Severe Weather on mobile